Terminal Aerodrome Forecast
Issued by NWS

Home | Current Version | Previous Version | Text Only | Print | Product List | Glossary On
Versions: 1 2 3 4 5 6 7 8 9 10 11 12 13 14 15 16 17
518
FTUS42 KTBW 281124
TAFPGD
TAF
KPGD 281124Z 2812/2912 11005KT P6SM SCT250
      TEMPO 2812/2814 1/4SM FG OVC002
     FM281500 15008KT P6SM FEW250
     FM282100 20010KT P6SM FEW060
     FM290200 13006KT P6SM FEW200=

USA.gov is the U.S. government's official web portal to all federal, state and local government web resources and services.